Time;durP1;ratioP1;P1;durP2;ratioP2;P2;SDS_P1;SDS_P2;PMS_P1;PMS_P2;Temp;Humidity;BMP_temperature;BMP_pressure;BME280_temperature;BME280_humidity;BME280_pressure;Samples;Min_cycle;Max_cycle;Signal;HPM_P1;HPM_P2
2023/10/08 00:02:06;;;;;;;10.65;5.60;;;17.40;99.90;;;;;;5016695;28;20041;-39
2023/10/08 00:04:38;;;;;;;8.63;5.68;;;17.40;99.90;;;;;;5019145;28;20050;-37
2023/10/08 00:07:12;;;;;;;11.05;5.82;;;17.50;99.90;;;;;;5010172;28;20053;-40
2023/10/08 00:09:55;;;;;;;9.07;6.07;;;17.50;99.90;;;;;;5016758;28;20045;-39
2023/10/08 00:12:30;;;;;;;16.55;6.68;;;17.60;99.90;;;;;;5021436;28;20057;-39
2023/10/08 00:15:00;;;;;;;10.23;6.20;;;17.70;99.90;;;;;;5023462;28;20140;-41
2023/10/08 00:17:31;;;;;;;8.88;5.50;;;17.70;99.90;;;;;;5032399;28;20064;-38
2023/10/08 00:20:03;;;;;;;13.70;6.50;;;17.70;99.90;;;;;;5020444;28;20514;-38
2023/10/08 00:22:37;;;;;;;10.63;6.10;;;17.70;99.90;;;;;;5018621;28;20042;-38
2023/10/08 00:25:11;;;;;;;11.23;6.28;;;17.60;99.90;;;;;;5015175;28;20049;-39
2023/10/08 00:27:41;;;;;;;9.63;5.90;;;17.60;99.90;;;;;;5014771;28;20049;-36
2023/10/08 00:30:17;;;;;;;9.18;6.05;;;17.50;99.90;;;;;;5015903;28;20053;-40
2023/10/08 00:32:51;;;;;;;9.82;5.85;;;17.60;99.90;;;;;;5015303;28;20045;-38
2023/10/08 00:35:25;;;;;;;10.82;5.90;;;17.50;99.90;;;;;;5021282;28;20545;-40
2023/10/08 00:38:00;;;;;;;9.77;5.80;;;17.50;99.90;;;;;;5030239;28;20054;-39
2023/10/08 00:40:45;;;;;;;8.85;5.68;;;17.50;99.90;;;;;;5029815;28;20108;-40
2023/10/08 00:43:35;;;;;;;8.95;6.00;;;17.50;99.90;;;;;;5017990;28;20462;-39
2023/10/08 00:46:31;;;;;;;9.10;5.63;;;17.60;99.90;;;;;;5012405;28;20065;-39
2023/10/08 00:49:18;;;;;;;9.32;5.95;;;17.50;99.90;;;;;;5015811;28;20041;-38
2023/10/08 00:51:48;;;;;;;10.93;5.97;;;17.40;99.90;;;;;;5017085;28;20140;-39
2023/10/08 00:54:19;;;;;;;10.52;5.63;;;17.30;99.90;;;;;;5019230;28;20517;-39
2023/10/08 00:56:57;;;;;;;9.80;6.28;;;17.30;99.90;;;;;;5018358;28;20125;-39
2023/10/08 00:59:33;;;;;;;8.60;5.82;;;17.40;99.90;;;;;;5022032;28;20033;-39
2023/10/08 01:02:08;;;;;;;9.73;5.88;;;17.40;99.90;;;;;;5001529;28;20512;-39
2023/10/08 01:04:39;;;;;;;8.60;5.75;;;17.40;99.90;;;;;;5020645;28;20053;-39
2023/10/08 01:07:15;;;;;;;8.23;6.20;;;17.40;99.90;;;;;;5023630;28;20132;-38
2023/10/08 01:10:00;;;;;;;10.38;5.70;;;17.20;99.90;;;;;;5017347;28;20556;-39
2023/10/08 01:12:33;;;;;;;10.48;5.80;;;17.30;99.90;;;;;;4994855;28;20061;-39
2023/10/08 01:15:28;;;;;;;11.85;6.20;;;17.30;99.90;;;;;;5018648;28;20042;-39
2023/10/08 01:17:59;;;;;;;9.40;5.93;;;17.20;99.90;;;;;;5015238;28;20211;-39
2023/10/08 01:23:13;;;;;;;9.52;5.97;;;17.10;99.90;;;;;;5025089;28;20333;-38
2023/10/08 01:25:42;;;;;;;8.57;5.82;;;17.10;99.90;;;;;;5021483;28;20042;-38
2023/10/08 01:28:22;;;;;;;8.15;5.75;;;17.10;99.90;;;;;;5022261;28;20041;-39
2023/10/08 01:30:53;;;;;;;10.38;6.07;;;17.10;99.90;;;;;;5018247;28;20055;-40
2023/10/08 01:33:22;;;;;;;9.30;5.63;;;17.00;99.90;;;;;;5025853;28;20046;-38
2023/10/08 01:35:49;;;;;;;9.63;6.20;;;16.90;99.90;;;;;;5026508;28;20080;-40
2023/10/08 01:38:23;;;;;;;12.27;5.70;;;16.90;99.90;;;;;;5034421;28;20061;-38
2023/10/08 01:40:51;;;;;;;8.48;5.53;;;16.80;99.90;;;;;;5019016;28;20072;-37
2023/10/08 01:43:20;;;;;;;10.85;5.88;;;16.90;99.90;;;;;;5022439;28;20125;-42
2023/10/08 01:45:51;;;;;;;11.57;5.75;;;16.80;99.90;;;;;;5025795;28;20697;-41
2023/10/08 01:48:20;;;;;;;10.90;5.85;;;16.80;99.90;;;;;;5020478;28;20064;-42
2023/10/08 01:50:47;;;;;;;8.88;6.03;;;16.80;99.90;;;;;;5025566;28;20049;-41
2023/10/08 01:53:16;;;;;;;10.82;5.68;;;16.80;99.90;;;;;;5033146;28;20449;-41
2023/10/08 01:55:51;;;;;;;9.52;5.35;;;16.70;99.90;;;;;;5032094;28;20129;-39
2023/10/08 01:58:19;;;;;;;8.65;5.68;;;16.70;99.90;;;;;;5027281;28;20062;-41
2023/10/08 02:00:52;;;;;;;9.75;5.80;;;16.70;99.90;;;;;;5034391;28;20125;-39
2023/10/08 02:03:19;;;;;;;8.43;5.45;;;16.80;99.90;;;;;;5031735;28;20069;-41
2023/10/08 02:05:47;;;;;;;11.68;6.00;;;16.90;99.90;;;;;;5026648;28;20426;-42
2023/10/08 02:08:16;;;;;;;10.65;5.30;;;16.90;99.90;;;;;;5030946;28;20187;-42
2023/10/08 02:10:47;;;;;;;12.18;5.25;;;17.00;99.90;;;;;;5024608;28;20050;-40
2023/10/08 02:13:15;;;;;;;10.23;5.45;;;17.00;99.90;;;;;;5033038;28;20046;-40
2023/10/08 02:15:49;;;;;;;8.35;5.88;;;17.00;99.90;;;;;;5022684;28;20055;-43
2023/10/08 02:18:17;;;;;;;9.32;5.22;;;17.00;99.90;;;;;;5026445;28;20053;-41
2023/10/08 02:20:45;;;;;;;9.20;5.78;;;17.00;99.90;;;;;;5015951;28;20047;-40
2023/10/08 02:23:13;;;;;;;7.82;5.20;;;17.00;99.90;;;;;;5022791;28;20663;-41
2023/10/08 02:25:40;;;;;;;8.90;5.32;;;17.00;99.90;;;;;;5016675;28;20119;-41
2023/10/08 02:28:15;;;;;;;12.07;5.70;;;17.00;99.90;;;;;;5017193;28;20080;-41
2023/10/08 02:30:43;;;;;;;9.35;5.55;;;17.00;99.90;;;;;;5014555;28;20050;-39
2023/10/08 02:33:17;;;;;;;8.43;5.65;;;17.00;99.90;;;;;;5018617;28;20099;-41
2023/10/08 02:35:46;;;;;;;9.52;5.90;;;17.00;99.90;;;;;;5014131;28;20064;-41
2023/10/08 02:38:18;;;;;;;12.57;5.57;;;17.00;99.90;;;;;;5017324;28;20570;-40
2023/10/08 02:40:48;;;;;;;11.93;5.78;;;17.00;99.90;;;;;;5018207;28;20049;-40
2023/10/08 02:43:17;;;;;;;8.73;5.82;;;17.00;99.90;;;;;;5016636;28;20125;-39
2023/10/08 02:45:49;;;;;;;9.82;5.70;;;17.00;99.90;;;;;;5017647;28;20073;-40
2023/10/08 02:48:19;;;;;;;11.60;5.38;;;17.00;99.90;;;;;;5021720;28;20577;-41
2023/10/08 02:50:48;;;;;;;7.18;5.25;;;16.90;99.90;;;;;;5013461;28;20113;-39
2023/10/08 02:53:20;;;;;;;11.77;5.80;;;17.00;99.90;;;;;;5025862;28;20054;-42
2023/10/08 02:55:49;;;;;;;15.68;5.82;;;17.00;99.90;;;;;;5015023;28;20104;-40
2023/10/08 02:58:18;;;;;;;12.30;5.82;;;17.00;99.90;;;;;;5024647;28;20045;-40
2023/10/08 03:00:48;;;;;;;12.15;5.43;;;17.00;99.90;;;;;;5021779;28;20041;-40
2023/10/08 03:03:18;;;;;;;8.88;5.38;;;17.00;99.90;;;;;;5034139;28;20561;-42
2023/10/08 03:05:51;;;;;;;10.68;5.95;;;16.90;99.90;;;;;;5028007;28;20096;-41
2023/10/08 03:08:20;;;;;;;8.65;5.63;;;16.90;99.90;;;;;;5023557;28;20042;-40
2023/10/08 03:10:55;;;;;;;10.95;5.90;;;16.90;99.90;;;;;;5012339;28;20056;-39
2023/10/08 03:13:23;;;;;;;12.68;6.20;;;16.90;99.90;;;;;;5024679;28;20076;-41
2023/10/08 03:18:36;;;;;;;8.55;5.30;;;16.90;99.90;;;;;;5025929;28;20060;-40
2023/10/08 03:21:20;;;;;;;9.77;5.63;;;16.90;99.90;;;;;;5038234;28;20050;-39
2023/10/08 03:23:51;;;;;;;9.50;5.82;;;16.80;99.90;;;;;;5036124;28;20053;-40
2023/10/08 03:29:05;;;;;;;14.48;5.95;;;16.80;99.90;;;;;;5021067;28;20080;-41
2023/10/08 03:34:34;;;;;;;11.40;5.72;;;17.00;99.90;;;;;;5007892;28;20045;-39
2023/10/08 03:37:07;;;;;;;12.35;5.53;;;17.00;99.90;;;;;;5020103;28;20056;-42
2023/10/08 03:42:22;;;;;;;10.57;5.63;;;16.90;99.90;;;;;;5023713;28;20042;-41
2023/10/08 03:44:52;;;;;;;11.55;5.50;;;16.90;99.90;;;;;;5022880;28;20046;-41
2023/10/08 03:47:22;;;;;;;12.85;5.53;;;16.90;99.90;;;;;;5025739;28;20052;-41
2023/10/08 03:49:51;;;;;;;9.45;5.60;;;16.90;99.90;;;;;;5019320;28;20097;-41
2023/10/08 03:52:23;;;;;;;8.98;5.00;;;16.90;99.90;;;;;;5017666;28;20526;-39
2023/10/08 03:55:04;;;;;;;;;;;16.90;99.90;;;;;;5021943;28;20053;-41
2023/10/08 03:57:41;;;;;;;10.27;5.75;;;16.90;99.90;;;;;;5021140;28;20201;-39
2023/10/08 04:00:28;;;;;;;10.30;5.45;;;16.90;99.90;;;;;;5023497;28;20037;-40
2023/10/08 04:03:00;;;;;;;10.63;5.53;;;16.90;99.90;;;;;;5011332;28;20050;-39
2023/10/08 04:05:32;;;;;;;11.40;5.57;;;16.90;99.90;;;;;;5019351;28;20133;-41
2023/10/08 04:13:08;;;;;;;9.38;4.95;;;16.80;99.90;;;;;;4987660;28;20051;-44
2023/10/08 04:15:40;;;;;;;9.27;5.07;;;16.80;99.90;;;;;;4990666;28;20504;-47
2023/10/08 04:18:08;;;;;;;;;;;16.70;99.90;;;;;;4987231;28;20189;-45
2023/10/08 04:20:39;;;;;;;10.57;6.07;;;16.70;99.90;;;;;;4988721;28;19921;-47
2023/10/08 04:23:20;;;;;;;16.45;6.03;;;16.70;99.90;;;;;;4989024;28;20089;-45
2023/10/08 04:25:54;;;;;;;9.50;5.25;;;16.70;99.90;;;;;;4988176;28;20050;-46
2023/10/08 04:28:26;;;;;;;8.40;4.97;;;16.50;99.90;;;;;;4989731;28;20053;-46
2023/10/08 04:31:00;;;;;;;11.40;5.60;;;16.50;99.90;;;;;;4992375;28;20081;-44
2023/10/08 04:33:33;;;;;;;9.77;5.35;;;16.40;99.90;;;;;;4987110;28;20356;-45
2023/10/08 04:36:01;;;;;;;8.25;5.60;;;16.40;99.90;;;;;;4990520;28;20046;-46
2023/10/08 04:38:30;;;;;;;10.13;5.35;;;16.30;99.90;;;;;;4989671;28;20066;-45
2023/10/08 04:41:02;;;;;;;9.95;5.82;;;16.20;99.90;;;;;;4991137;28;20050;-45
2023/10/08 04:43:30;;;;;;;12.70;5.63;;;16.20;99.90;;;;;;4988776;28;20042;-44
2023/10/08 04:45:58;;;;;;;10.55;5.50;;;16.20;99.90;;;;;;4992706;28;20092;-47
2023/10/08 04:48:32;;;;;;;9.27;5.53;;;16.10;99.90;;;;;;4991740;28;20542;-43
2023/10/08 04:51:01;;;;;;;9.68;5.22;;;16.10;99.90;;;;;;4986914;28;20046;-43
2023/10/08 04:53:35;;;;;;;7.90;5.25;;;16.10;99.90;;;;;;4992425;28;20082;-43
2023/10/08 04:56:05;;;;;;;12.00;5.20;;;16.10;99.90;;;;;;4990793;28;20078;-47
2023/10/08 04:58:40;;;;;;;10.55;5.53;;;16.00;99.90;;;;;;4986997;28;20038;-45
2023/10/08 05:01:17;;;;;;;9.18;5.18;;;16.10;99.90;;;;;;4991912;28;20060;-45
2023/10/08 05:17:22;;;;;;;9.57;5.93;;;16.20;99.90;;;;;;4981734;28;20041;-48
2023/10/08 05:25:08;;;;;;;10.48;5.00;;;16.10;99.90;;;;;;4985750;28;20046;-45
2023/10/08 05:28:08;;;;;;;10.25;4.90;;;16.00;99.90;;;;;;4986868;28;20306;-44
2023/10/08 05:30:38;;;;;;;10.85;5.70;;;16.00;99.90;;;;;;4981400;28;20082;-44
2023/10/08 05:33:12;;;;;;;8.70;5.50;;;16.00;99.90;;;;;;4987634;28;20074;-41
2023/10/08 05:38:13;;;;;;;13.82;5.13;;;16.10;99.90;;;;;;4995754;28;20073;-45
2023/10/08 05:41:16;;;;;;;;;;;16.10;99.90;;;;;;4991291;28;20077;-44
2023/10/08 06:00:16;;;;;;;12.70;4.95;;;16.20;99.90;;;;;;4986452;28;19925;-50
2023/10/08 06:13:06;;;;;;;12.57;6.53;;;16.30;99.90;;;;;;4985504;28;20050;-44
2023/10/08 06:18:26;;;;;;;11.60;5.78;;;16.30;99.90;;;;;;4987120;28;20062;-44
2023/10/08 06:21:08;;;;;;;9.88;5.28;;;16.20;99.90;;;;;;4985832;28;20042;-42
2023/10/08 06:23:39;;;;;;;10.32;5.55;;;16.30;99.90;;;;;;4985794;28;20462;-43
2023/10/08 06:26:14;;;;;;;10.30;5.80;;;16.20;99.90;;;;;;4987688;28;20144;-47
2023/10/08 06:28:44;;;;;;;9.70;5.03;;;16.20;99.90;;;;;;4991075;28;20046;-45
2023/10/08 06:31:11;;;;;;;14.43;5.53;;;16.20;99.90;;;;;;4986388;28;20488;-44
2023/10/08 06:33:40;;;;;;;13.52;5.68;;;16.20;99.90;;;;;;4989965;28;20515;-44
2023/10/08 06:38:48;;;;;;;10.32;5.32;;;16.20;99.90;;;;;;4989707;28;20046;-47
2023/10/08 06:41:20;;;;;;;12.27;5.57;;;16.20;99.90;;;;;;4993227;28;20046;-46
2023/10/08 06:44:14;;;;;;;10.90;5.55;;;16.20;99.90;;;;;;4987263;28;20134;-43
2023/10/08 06:46:42;;;;;;;11.07;5.43;;;16.20;99.90;;;;;;4993521;28;20431;-44
2023/10/08 06:49:13;;;;;;;11.15;5.43;;;16.30;99.90;;;;;;4993653;28;20516;-46
2023/10/08 06:51:45;;;;;;;11.30;5.40;;;16.20;99.90;;;;;;4991912;28;20089;-44
2023/10/08 06:54:17;;;;;;;8.88;5.03;;;16.20;99.90;;;;;;4993717;28;20124;-43
2023/10/08 06:56:51;;;;;;;12.70;5.20;;;16.20;99.90;;;;;;4992543;28;20137;-45
2023/10/08 06:59:23;;;;;;;11.98;5.95;;;16.20;99.90;;;;;;4991791;28;20170;-44
2023/10/08 07:01:51;;;;;;;10.45;5.93;;;16.20;99.90;;;;;;4981370;28;20526;-44
2023/10/08 07:04:21;;;;;;;10.63;5.60;;;16.30;99.90;;;;;;4991674;28;20034;-42
2023/10/08 07:06:50;;;;;;;10.23;5.65;;;16.40;99.90;;;;;;4992250;28;20366;-44
2023/10/08 07:11:56;;;;;;;15.07;5.78;;;16.50;99.90;;;;;;4993180;28;20101;-44
2023/10/08 07:14:28;;;;;;;12.95;5.95;;;16.50;99.90;;;;;;4988377;28;20050;-41
2023/10/08 07:17:00;;;;;;;8.73;4.90;;;16.60;99.90;;;;;;5008136;28;20072;-44
2023/10/08 07:19:37;;;;;;;10.20;5.45;;;16.70;99.90;;;;;;4991955;28;20467;-43
2023/10/08 07:22:18;;;;;;;8.30;5.00;;;16.80;99.90;;;;;;4993388;28;20050;-45
2023/10/08 07:24:50;;;;;;;8.65;5.35;;;17.00;99.90;;;;;;4993600;28;20097;-47
2023/10/08 07:27:29;;;;;;;11.23;6.35;;;17.10;99.90;;;;;;4993047;28;20518;-45
2023/10/08 07:30:01;;;;;;;9.95;5.28;;;17.10;99.90;;;;;;4995504;28;20101;-45
2023/10/08 07:32:30;;;;;;;12.98;5.00;;;17.20;99.90;;;;;;4992707;28;20431;-46
2023/10/08 07:35:14;;;;;;;10.05;5.82;;;17.10;99.90;;;;;;4992836;28;20061;-47
2023/10/08 07:37:43;;;;;;;14.30;5.53;;;17.20;99.90;;;;;;4989846;28;20046;-49
2023/10/08 07:40:12;;;;;;;11.75;5.18;;;17.20;99.90;;;;;;4990562;28;20487;-48
2023/10/08 07:42:40;;;;;;;10.25;5.32;;;17.20;99.90;;;;;;4988722;28;20403;-42
2023/10/08 07:45:08;;;;;;;11.60;5.18;;;17.20;99.90;;;;;;4987174;28;20042;-44
2023/10/08 07:47:35;;;;;;;11.50;5.57;;;17.30;99.90;;;;;;4989218;28;20116;-45
2023/10/08 07:50:11;;;;;;;8.50;5.18;;;17.30;99.90;;;;;;4990096;28;20050;-43
2023/10/08 07:52:44;;;;;;;13.68;6.40;;;17.30;99.90;;;;;;4989557;28;20108;-45
2023/10/08 07:55:17;;;;;;;9.38;5.65;;;17.40;99.90;;;;;;4989768;28;20445;-41
2023/10/08 07:57:45;;;;;;;11.80;5.60;;;17.40;99.90;;;;;;4992629;28;20058;-42
2023/10/08 08:00:25;;;;;;;11.52;6.10;;;17.40;99.90;;;;;;4993119;28;20045;-46
2023/10/08 08:02:54;;;;;;;10.27;5.45;;;17.50;99.90;;;;;;4993257;28;20055;-38
2023/10/08 08:05:23;;;;;;;10.10;5.70;;;17.70;99.90;;;;;;4987731;28;20049;-45
2023/10/08 08:07:50;;;;;;;11.52;5.72;;;17.70;99.90;;;;;;4984803;28;20328;-45
2023/10/08 08:10:18;;;;;;;9.13;5.40;;;17.80;99.90;;;;;;4992036;28;20574;-43
2023/10/08 08:12:46;;;;;;;12.23;6.00;;;18.00;99.90;;;;;;4991576;28;20137;-42
2023/10/08 08:15:16;;;;;;;9.75;5.70;;;18.20;99.90;;;;;;4992306;28;20179;-44
2023/10/08 08:17:47;;;;;;;18.90;5.75;;;18.10;99.90;;;;;;4992350;28;20157;-44
2023/10/08 08:20:18;;;;;;;11.35;5.68;;;18.30;99.90;;;;;;4992758;28;20050;-44
2023/10/08 08:22:54;;;;;;;10.25;6.55;;;18.50;99.90;;;;;;4992885;28;20058;-42
2023/10/08 08:25:34;;;;;;;10.50;5.72;;;18.60;99.90;;;;;;4990074;28;20057;-45
2023/10/08 08:28:05;;;;;;;13.25;5.90;;;18.70;99.90;;;;;;4984475;28;20532;-41
2023/10/08 08:30:36;;;;;;;10.88;5.32;;;18.70;99.90;;;;;;4988463;28;20097;-44
2023/10/08 08:33:10;;;;;;;11.07;5.88;;;18.70;99.90;;;;;;4988995;28;20054;-43
2023/10/08 08:35:38;;;;;;;13.77;5.93;;;18.80;99.90;;;;;;4992470;28;20058;-42
2023/10/08 08:38:08;;;;;;;8.88;5.43;;;18.90;99.90;;;;;;4990078;28;20070;-43
2023/10/08 08:40:36;;;;;;;13.45;5.65;;;19.00;99.90;;;;;;4993684;28;20054;-44
2023/10/08 08:43:05;;;;;;;9.48;5.53;;;19.30;99.90;;;;;;4993698;28;20045;-45
2023/10/08 08:45:35;;;;;;;11.50;5.72;;;19.30;99.90;;;;;;4986705;28;20129;-43
2023/10/08 08:48:02;;;;;;;9.90;5.25;;;19.50;99.90;;;;;;4992462;28;20066;-41
2023/10/08 08:50:32;;;;;;;11.95;6.22;;;19.70;99.90;;;;;;4990885;28;20062;-47
2023/10/08 08:52:59;;;;;;;12.05;5.60;;;19.60;99.90;;;;;;4987516;28;20577;-46
2023/10/08 08:55:28;;;;;;;9.38;5.85;;;19.40;99.90;;;;;;4991294;28;20050;-42
2023/10/08 08:57:55;;;;;;;10.25;5.70;;;19.30;99.90;;;;;;4986549;28;20154;-43
2023/10/08 09:00:28;;;;;;;11.82;5.70;;;18.90;99.90;;;;;;4992319;28;20044;-46
2023/10/08 09:02:55;;;;;;;12.73;6.00;;;18.70;99.90;;;;;;4993719;28;20045;-48
2023/10/08 09:05:25;;;;;;;8.98;5.50;;;18.70;99.90;;;;;;4991056;28;20050;-48
2023/10/08 09:08:06;;;;;;;11.32;6.78;;;18.60;99.90;;;;;;4986682;28;20042;-43
2023/10/08 09:10:51;;;;;;;10.77;5.82;;;18.50;99.90;;;;;;4989197;28;20052;-47
2023/10/08 09:13:22;;;;;;;10.00;5.93;;;18.50;99.90;;;;;;4993798;28;20061;-45
2023/10/08 09:15:51;;;;;;;11.43;5.18;;;18.50;99.90;;;;;;4990445;28;20096;-45
2023/10/08 09:18:27;;;;;;;10.93;5.38;;;18.50;99.90;;;;;;4993652;28;20112;-43
2023/10/08 09:20:55;;;;;;;10.70;5.50;;;18.40;99.90;;;;;;4995739;28;20046;-44
2023/10/08 09:23:25;;;;;;;10.75;5.35;;;18.40;99.90;;;;;;4987714;28;20129;-42
2023/10/08 09:26:02;;;;;;;12.65;5.40;;;18.40;99.90;;;;;;4991607;28;20043;-45
2023/10/08 09:28:34;;;;;;;9.55;5.47;;;18.40;99.90;;;;;;4991799;28;20139;-42
2023/10/08 09:31:04;;;;;;;11.05;5.78;;;18.40;99.90;;;;;;4985888;28;20539;-43
2023/10/08 09:33:32;;;;;;;11.07;6.00;;;18.30;99.90;;;;;;4991003;28;20439;-45
2023/10/08 09:36:06;;;;;;;10.93;5.93;;;18.40;99.90;;;;;;4995283;28;20046;-45
2023/10/08 09:38:36;;;;;;;11.75;5.75;;;18.40;99.90;;;;;;4989972;28;20057;-44
2023/10/08 09:41:03;;;;;;;11.18;5.60;;;18.60;99.90;;;;;;4995226;28;20046;-44
2023/10/08 09:43:35;;;;;;;10.57;6.00;;;18.90;99.90;;;;;;4990094;28;20038;-47
2023/10/08 09:46:38;;;;;;;10.35;6.40;;;19.00;99.90;;;;;;4989334;28;20046;-46
2023/10/08 09:49:08;;;;;;;12.90;6.28;;;19.40;99.90;;;;;;4985592;28;20046;-44
2023/10/08 09:51:39;;;;;;;13.75;6.18;;;19.50;99.90;;;;;;4992053;28;20133;-47
2023/10/08 09:54:10;;;;;;;11.73;6.20;;;19.70;99.90;;;;;;4992202;28;20431;-50
2023/10/08 09:56:39;;;;;;;15.57;6.07;;;19.90;99.90;;;;;;4983552;28;20057;-45
2023/10/08 09:59:09;;;;;;;10.68;6.32;;;19.60;99.90;;;;;;4987268;28;20097;-45
2023/10/08 10:01:38;;;;;;;11.40;6.18;;;19.70;99.90;;;;;;4988956;28;20046;-47
2023/10/08 10:04:10;;;;;;;12.55;6.53;;;19.60;99.90;;;;;;4988455;28;20061;-47
2023/10/08 10:06:43;;;;;;;12.68;7.03;;;19.60;99.90;;;;;;4985761;28;20053;-43
2023/10/08 10:09:21;;;;;;;14.68;6.18;;;19.50;99.90;;;;;;4985017;28;20282;-49
2023/10/08 10:11:50;;;;;;;14.00;6.53;;;19.50;99.90;;;;;;5000579;23;20066;-40
2023/10/08 10:14:17;;;;;;;12.43;6.45;;;19.50;99.90;;;;;;4987357;28;20045;-40
2023/10/08 10:17:04;;;;;;;12.40;6.18;;;19.60;99.90;;;;;;4983465;28;20062;-40
2023/10/08 10:19:32;;;;;;;12.52;6.40;;;19.70;99.90;;;;;;4982210;28;20085;-42
2023/10/08 10:22:00;;;;;;;12.57;6.10;;;19.70;99.90;;;;;;4981148;28;20050;-42
2023/10/08 10:24:37;;;;;;;9.77;5.85;;;19.60;99.90;;;;;;4971269;28;20452;-41
2023/10/08 10:27:11;;;;;;;10.18;6.50;;;19.50;99.90;;;;;;4977890;28;20510;-40
2023/10/08 10:29:39;;;;;;;10.95;5.93;;;19.50;99.90;;;;;;4975147;28;20165;-43
2023/10/08 10:32:06;;;;;;;11.93;6.10;;;19.60;99.90;;;;;;4981544;28;20047;-43
2023/10/08 10:34:39;;;;;;;12.93;6.45;;;19.50;99.90;;;;;;4982878;28;20114;-45
2023/10/08 10:37:19;;;;;;;14.98;6.35;;;19.40;99.90;;;;;;4985676;28;20082;-41
2023/10/08 10:40:00;;;;;;;14.70;7.15;;;19.40;99.90;;;;;;4981583;28;20550;-43
2023/10/08 10:42:30;;;;;;;10.90;6.40;;;19.30;99.90;;;;;;4975858;28;20623;-40
2023/10/08 10:44:58;;;;;;;11.27;6.35;;;19.40;99.90;;;;;;4973552;28;20057;-41
2023/10/08 10:47:26;;;;;;;13.27;7.22;;;19.30;99.90;;;;;;4979768;28;20050;-42
2023/10/08 10:52:52;;;;;;;13.57;6.85;;;19.30;99.90;;;;;;4958308;28;20066;-41
2023/10/08 10:55:31;;;;;;;12.38;6.60;;;19.20;99.90;;;;;;4966730;28;20039;-40
2023/10/08 10:58:04;;;;;;;12.23;6.13;;;19.00;99.90;;;;;;4975540;28;20078;-41
2023/10/08 11:03:02;;;;;;;9.80;6.38;;;18.80;99.90;;;;;;4973543;28;20049;-40
2023/10/08 11:05:37;;;;;;;14.25;7.10;;;18.80;99.90;;;;;;4974011;28;20070;-40
2023/10/08 11:08:06;;;;;;;13.05;6.90;;;18.80;99.90;;;;;;4969494;28;20054;-42
2023/10/08 11:10:39;;;;;;;12.40;6.75;;;18.90;99.90;;;;;;4976139;28;20053;-41
2023/10/08 11:13:14;;;;;;;12.55;7.22;;;18.80;99.90;;;;;;4974937;28;20051;-41
2023/10/08 11:15:43;;;;;;;8.45;5.80;;;18.70;99.90;;;;;;4972756;28;20098;-38
2023/10/08 11:18:12;;;;;;;12.85;7.40;;;18.80;99.90;;;;;;4978166;28;20047;-41
2023/10/08 11:20:51;;;;;;;11.25;6.60;;;18.90;99.90;;;;;;4978148;28;20046;-40
2023/10/08 11:23:41;;;;;;;11.88;7.05;;;18.90;99.90;;;;;;4976927;28;20065;-40
2023/10/08 11:26:09;;;;;;;14.43;6.97;;;19.00;99.90;;;;;;4972266;28;20126;-41
2023/10/08 11:28:43;;;;;;;12.90;7.15;;;19.10;99.90;;;;;;4972001;28;20429;-38
2023/10/08 11:31:14;;;;;;;12.57;6.28;;;19.30;99.90;;;;;;4980272;28;20477;-39
2023/10/08 11:33:42;;;;;;;14.60;7.53;;;19.40;99.90;;;;;;4976384;28;20061;-40
2023/10/08 11:36:18;;;;;;;12.10;7.10;;;19.30;99.90;;;;;;4980775;28;20138;-41
2023/10/08 11:38:50;;;;;;;14.23;6.68;;;19.60;99.90;;;;;;4979538;28;20058;-41
2023/10/08 11:41:21;;;;;;;12.60;7.03;;;19.60;99.90;;;;;;4981337;28;20201;-42
2023/10/08 11:43:53;;;;;;;14.25;6.97;;;19.80;99.90;;;;;;4977727;28;20097;-39
2023/10/08 11:46:25;;;;;;;13.88;6.57;;;20.00;99.90;;;;;;4972491;28;20042;-40
2023/10/08 11:48:57;;;;;;;13.18;6.40;;;19.80;99.90;;;;;;4977569;28;20046;-39
2023/10/08 11:51:25;;;;;;;10.45;6.53;;;20.00;99.90;;;;;;4974952;28;20523;-41
2023/10/08 11:53:56;;;;;;;13.30;6.30;;;20.20;99.90;;;;;;4979513;28;20042;-42
2023/10/08 11:56:24;;;;;;;13.23;6.93;;;20.20;99.90;;;;;;4979460;28;20076;-41
2023/10/08 11:58:52;;;;;;;12.98;6.40;;;20.20;99.90;;;;;;4978662;28;20078;-41
2023/10/08 12:01:20;;;;;;;13.68;6.93;;;20.00;99.90;;;;;;4979160;28;20105;-39
2023/10/08 12:03:50;;;;;;;11.60;6.20;;;19.90;99.90;;;;;;4977703;28;20500;-38
2023/10/08 12:06:19;;;;;;;13.20;7.17;;;19.90;99.90;;;;;;4980176;28;20062;-40
2023/10/08 12:08:53;;;;;;;11.20;6.63;;;20.00;99.90;;;;;;4976199;28;20199;-40
2023/10/08 12:11:23;;;;;;;11.00;6.68;;;20.00;99.90;;;;;;4985835;28;20074;-38
2023/10/08 12:13:50;;;;;;;14.98;7.15;;;19.90;99.90;;;;;;4979086;28;20100;-41
2023/10/08 12:16:23;;;;;;;12.63;6.38;;;19.90;99.90;;;;;;4983057;28;20065;-41
2023/10/08 12:18:55;;;;;;;11.82;6.47;;;19.90;99.90;;;;;;4977364;28;20043;-44
2023/10/08 12:21:24;;;;;;;11.43;6.55;;;19.90;99.90;;;;;;4970941;28;20046;-41
2023/10/08 12:23:54;;;;;;;12.50;6.05;;;19.80;99.90;;;;;;4979817;28;20102;-40
2023/10/08 12:26:22;;;;;;;12.75;7.05;;;19.80;99.90;;;;;;4963602;28;20488;-38
2023/10/08 12:28:50;;;;;;;17.45;6.78;;;19.80;99.90;;;;;;4980506;28;20118;-38
2023/10/08 12:31:22;;;;;;;13.15;6.63;;;19.80;99.90;;;;;;4980508;28;20105;-41
2023/10/08 12:33:53;;;;;;;14.73;6.40;;;20.00;99.90;;;;;;4977800;28;20409;-40
2023/10/08 12:36:23;;;;;;;11.38;6.18;;;19.80;99.90;;;;;;4977626;28;20137;-39
2023/10/08 12:38:59;;;;;;;13.02;6.30;;;19.70;99.90;;;;;;4977308;28;20101;-40
2023/10/08 12:41:27;;;;;;;12.50;6.78;;;19.60;99.90;;;;;;4983492;28;20061;-39
2023/10/08 12:43:54;;;;;;;14.38;6.88;;;19.50;99.90;;;;;;4980395;28;20071;-42
2023/10/08 12:46:25;;;;;;;10.15;6.65;;;19.40;99.90;;;;;;4984541;28;20060;-40
2023/10/08 12:48:54;;;;;;;16.20;6.77;;;19.40;99.90;;;;;;4977919;28;20054;-40
2023/10/08 12:51:26;;;;;;;11.88;6.85;;;19.50;99.90;;;;;;4974104;28;20053;-40
2023/10/08 12:56:48;;;;;;;13.60;7.70;;;19.50;99.90;;;;;;4974888;28;20046;-41
2023/10/08 12:59:23;;;;;;;11.65;5.85;;;19.40;99.90;;;;;;4985805;28;20062;-41
2023/10/08 13:01:53;;;;;;;12.13;6.75;;;19.20;99.90;;;;;;4977730;28;20054;-41
2023/10/08 13:04:28;;;;;;;17.15;7.10;;;19.20;99.90;;;;;;4982485;28;20042;-39
2023/10/08 13:07:00;;;;;;;12.73;6.95;;;19.10;99.90;;;;;;4984367;28;20078;-40
2023/10/08 13:09:31;;;;;;;12.30;6.82;;;19.20;99.90;;;;;;4985309;28;20048;-38
2023/10/08 13:11:59;;;;;;;10.43;6.32;;;19.20;99.90;;;;;;4986579;28;20047;-38
2023/10/08 13:14:27;;;;;;;11.45;6.22;;;19.30;99.90;;;;;;4990469;28;20507;-39
2023/10/08 13:16:54;;;;;;;13.77;7.00;;;19.20;99.90;;;;;;4980497;28;20043;-42
2023/10/08 13:19:26;;;;;;;13.73;6.40;;;19.10;99.90;;;;;;4973845;28;20055;-41
2023/10/08 13:21:53;;;;;;;15.27;7.28;;;19.10;99.90;;;;;;4980392;28;20053;-41
2023/10/08 13:24:21;;;;;;;13.40;6.88;;;19.10;99.90;;;;;;4979732;28;20044;-40
2023/10/08 13:26:51;;;;;;;14.90;6.78;;;19.10;99.90;;;;;;4980584;28;20057;-41
2023/10/08 13:29:19;;;;;;;10.18;6.05;;;19.10;99.90;;;;;;4980136;28;20046;-42
2023/10/08 13:31:46;;;;;;;11.68;6.97;;;19.00;99.90;;;;;;4979279;28;20590;-44
2023/10/08 13:34:16;;;;;;;12.38;7.00;;;19.10;99.90;;;;;;4977302;28;20269;-39
2023/10/08 13:36:46;;;;;;;12.95;6.97;;;19.10;99.90;;;;;;4963989;28;20491;-40
2023/10/08 13:39:18;;;;;;;10.02;6.22;;;19.20;99.90;;;;;;4983097;28;20109;-44
2023/10/08 13:41:47;;;;;;;13.57;6.93;;;19.40;99.90;;;;;;4982925;28;20051;-41
2023/10/08 13:44:16;;;;;;;15.55;6.95;;;19.60;99.90;;;;;;4986051;28;20443;-43
2023/10/08 13:46:48;;;;;;;12.85;6.80;;;19.80;99.90;;;;;;4984818;28;20042;-45
2023/10/08 13:49:18;;;;;;;15.77;7.15;;;19.80;99.90;;;;;;4980104;28;20038;-41
2023/10/08 13:51:49;;;;;;;12.38;6.65;;;20.00;99.90;;;;;;4963494;28;20062;-42
2023/10/08 13:54:19;;;;;;;13.45;7.35;;;20.30;99.90;;;;;;4977618;28;20145;-40
2023/10/08 13:56:47;;;;;;;14.13;6.65;;;20.10;99.90;;;;;;4978365;28;20051;-44
2023/10/08 13:59:16;;;;;;;13.93;7.22;;;20.10;99.90;;;;;;4984234;28;20050;-43
2023/10/08 14:01:51;;;;;;;10.13;7.03;;;20.30;99.90;;;;;;4979154;28;20078;-42
2023/10/08 14:04:20;;;;;;;11.40;6.50;;;20.60;99.90;;;;;;4986285;28;20037;-42
2023/10/08 14:06:51;;;;;;;15.43;7.32;;;20.60;99.90;;;;;;4981628;28;20050;-42
2023/10/08 14:09:21;;;;;;;;;;;20.90;99.90;;;;;;4985344;28;20557;-41
2023/10/08 14:11:52;;;;;;;10.07;6.82;;;20.80;99.90;;;;;;4982807;28;19976;-43
2023/10/08 14:14:23;;;;;;;18.40;7.72;;;20.60;99.90;;;;;;4984380;28;20073;-43
2023/10/08 14:16:53;;;;;;;12.65;7.45;;;20.40;99.90;;;;;;4987610;28;20086;-42
2023/10/08 14:19:28;;;;;;;12.68;7.35;;;20.30;99.90;;;;;;4981191;28;20049;-42
2023/10/08 14:22:03;;;;;;;12.90;7.03;;;20.00;99.90;;;;;;4990216;28;20050;-43
2023/10/08 14:24:35;;;;;;;12.60;7.68;;;19.90;99.90;;;;;;4987351;28;20053;-43
2023/10/08 14:27:09;;;;;;;14.55;7.70;;;19.80;99.90;;;;;;4987783;28;20051;-41
2023/10/08 14:29:40;;;;;;;12.43;6.43;;;19.80;99.90;;;;;;4987129;28;20051;-42